sensor_id;sensor_type;location;lat;lon;timestamp;temperature;humidity
64718;DHT22;62506;46.070;14.492;2022-11-11T00:00:21;21.90;67.60
64718;DHT22;62506;46.070;14.492;2022-11-11T00:02:47;21.90;67.60
64718;DHT22;62506;46.070;14.492;2022-11-11T00:05:14;21.90;67.60
64718;DHT22;62506;46.070;14.492;2022-11-11T00:07:39;21.90;67.50
64718;DHT22;62506;46.070;14.492;2022-11-11T00:10:05;21.90;67.50
64718;DHT22;62506;46.070;14.492;2022-11-11T00:12:31;21.90;67.50
64718;DHT22;62506;46.070;14.492;2022-11-11T00:14:56;21.90;67.50
64718;DHT22;62506;46.070;14.492;2022-11-11T00:17:22;21.90;67.50
64718;DHT22;62506;46.070;14.492;2022-11-11T00:20:07;21.90;67.50
64718;DHT22;62506;46.070;14.492;2022-11-11T00:22:52;21.90;67.60
64718;DHT22;62506;46.070;14.492;2022-11-11T00:25:36;21.90;67.50
64718;DHT22;62506;46.070;14.492;2022-11-11T00:28:01;21.90;67.50
64718;DHT22;62506;46.070;14.492;2022-11-11T00:30:27;21.90;67.60
64718;DHT22;62506;46.070;14.492;2022-11-11T00:32:52;21.90;67.50
64718;DHT22;62506;46.070;14.492;2022-11-11T00:35:18;21.90;67.50
64718;DHT22;62506;46.070;14.492;2022-11-11T00:38:09;21.90;67.50
64718;DHT22;62506;46.070;14.492;2022-11-11T00:40:35;21.90;67.50
64718;DHT22;62506;46.070;14.492;2022-11-11T00:43:00;21.90;67.50
64718;DHT22;62506;46.070;14.492;2022-11-11T00:45:26;21.90;67.50
64718;DHT22;62506;46.070;14.492;2022-11-11T00:47:51;21.90;67.50
64718;DHT22;62506;46.070;14.492;2022-11-11T00:50:35;21.90;67.30
64718;DHT22;62506;46.070;14.492;2022-11-11T00:53:24;21.90;67.40
64718;DHT22;62506;46.070;14.492;2022-11-11T00:55:49;21.90;67.40
64718;DHT22;62506;46.070;14.492;2022-11-11T00:58:15;21.90;67.30
64718;DHT22;62506;46.070;14.492;2022-11-11T01:00:43;21.90;67.30
64718;DHT22;62506;46.070;14.492;2022-11-11T01:03:09;21.90;67.20
64718;DHT22;62506;46.070;14.492;2022-11-11T01:05:37;21.90;67.30
64718;DHT22;62506;46.070;14.492;2022-11-11T01:08:03;21.90;67.40
64718;DHT22;62506;46.070;14.492;2022-11-11T01:10:29;21.90;67.30
64718;DHT22;62506;46.070;14.492;2022-11-11T01:13:04;21.90;67.30
64718;DHT22;62506;46.070;14.492;2022-11-11T01:15:36;21.90;67.40
64718;DHT22;62506;46.070;14.492;2022-11-11T01:18:01;21.90;67.20
64718;DHT22;62506;46.070;14.492;2022-11-11T01:20:27;21.90;67.20
64718;DHT22;62506;46.070;14.492;2022-11-11T01:22:52;21.90;68.20
64718;DHT22;62506;46.070;14.492;2022-11-11T01:25:18;21.90;67.20
64718;DHT22;62506;46.070;14.492;2022-11-11T01:27:43;21.90;67.20
64718;DHT22;62506;46.070;14.492;2022-11-11T01:30:09;21.90;67.20
64718;DHT22;62506;46.070;14.492;2022-11-11T01:32:38;21.90;67.20
64718;DHT22;62506;46.070;14.492;2022-11-11T01:35:04;21.90;67.20
64718;DHT22;62506;46.070;14.492;2022-11-11T01:37:32;21.90;67.30
64718;DHT22;62506;46.070;14.492;2022-11-11T01:39:57;21.90;67.20
64718;DHT22;62506;46.070;14.492;2022-11-11T01:42:23;21.90;67.20
64718;DHT22;62506;46.070;14.492;2022-11-11T01:44:48;21.80;67.20
64718;DHT22;62506;46.070;14.492;2022-11-11T01:47:14;21.80;67.20
64718;DHT22;62506;46.070;14.492;2022-11-11T01:54:38;21.80;67.20
64718;DHT22;62506;46.070;14.492;2022-11-11T01:57:16;21.90;67.40
64718;DHT22;62506;46.070;14.492;2022-11-11T01:59:44;21.80;67.30
64718;DHT22;62506;46.070;14.492;2022-11-11T02:02:18;21.80;67.20
64718;DHT22;62506;46.070;14.492;2022-11-11T02:04:46;21.80;67.30
64718;DHT22;62506;46.070;14.492;2022-11-11T02:07:30;21.80;67.70
64718;DHT22;62506;46.070;14.492;2022-11-11T02:09:57;21.80;67.50
64718;DHT22;62506;46.070;14.492;2022-11-11T02:12:23;21.80;67.50
64718;DHT22;62506;46.070;14.492;2022-11-11T02:15:07;21.80;67.60
64718;DHT22;62506;46.070;14.492;2022-11-11T02:17:33;21.70;67.50
64718;DHT22;62506;46.070;14.492;2022-11-11T02:19:59;21.70;67.50
64718;DHT22;62506;46.070;14.492;2022-11-11T02:23:11;21.80;67.70
64718;DHT22;62506;46.070;14.492;2022-11-11T02:25:12;21.70;67.70
64718;DHT22;62506;46.070;14.492;2022-11-11T02:27:39;21.70;67.70
64718;DHT22;62506;46.070;14.492;2022-11-11T02:30:07;21.80;67.70
64718;DHT22;62506;46.070;14.492;2022-11-11T02:32:40;21.80;67.70
64718;DHT22;62506;46.070;14.492;2022-11-11T02:35:51;21.70;67.50
64718;DHT22;62506;46.070;14.492;2022-11-11T02:37:51;21.80;67.70
64718;DHT22;62506;46.070;14.492;2022-11-11T02:40:29;21.70;67.70
64718;DHT22;62506;46.070;14.492;2022-11-11T02:42:57;21.70;67.70
64718;DHT22;62506;46.070;14.492;2022-11-11T02:45:22;21.70;67.70
64718;DHT22;62506;46.070;14.492;2022-11-11T02:47:49;21.70;67.70
64718;DHT22;62506;46.070;14.492;2022-11-11T02:50:15;21.70;67.70
64718;DHT22;62506;46.070;14.492;2022-11-11T02:52:40;21.70;67.70
64718;DHT22;62506;46.070;14.492;2022-11-11T02:55:06;21.80;67.70
64718;DHT22;62506;46.070;14.492;2022-11-11T02:57:32;21.70;67.70
64718;DHT22;62506;46.070;14.492;2022-11-11T02:59:58;21.70;67.70
64718;DHT22;62506;46.070;14.492;2022-11-11T03:02:24;21.70;67.70
64718;DHT22;62506;46.070;14.492;2022-11-11T03:04:55;21.70;68.20
64718;DHT22;62506;46.070;14.492;2022-11-11T03:07:21;21.70;67.70
64718;DHT22;62506;46.070;14.492;2022-11-11T03:09:47;21.70;67.80
64718;DHT22;62506;46.070;14.492;2022-11-11T03:12:13;21.70;67.70
64718;DHT22;62506;46.070;14.492;2022-11-11T03:14:38;21.70;67.80
64718;DHT22;62506;46.070;14.492;2022-11-11T03:17:04;21.70;67.80
64718;DHT22;62506;46.070;14.492;2022-11-11T03:19:48;21.70;67.70
64718;DHT22;62506;46.070;14.492;2022-11-11T03:22:14;21.70;67.70
64718;DHT22;62506;46.070;14.492;2022-11-11T03:24:39;21.70;67.70
64718;DHT22;62506;46.070;14.492;2022-11-11T03:27:23;21.70;67.70
64718;DHT22;62506;46.070;14.492;2022-11-11T03:29:49;21.70;68.60
64718;DHT22;62506;46.070;14.492;2022-11-11T03:32:14;21.70;67.70
64718;DHT22;62506;46.070;14.492;2022-11-11T03:34:40;21.70;67.70
64718;DHT22;62506;46.070;14.492;2022-11-11T03:37:06;21.70;67.60
64718;DHT22;62506;46.070;14.492;2022-11-11T03:39:50;21.70;67.60
64718;DHT22;62506;46.070;14.492;2022-11-11T03:42:15;21.70;67.70
64718;DHT22;62506;46.070;14.492;2022-11-11T03:44:41;21.70;68.40
64718;DHT22;62506;46.070;14.492;2022-11-11T03:47:06;21.80;67.50
64718;DHT22;62506;46.070;14.492;2022-11-11T03:49:32;21.80;67.50
64718;DHT22;62506;46.070;14.492;2022-11-11T03:51:58;21.70;67.40
64718;DHT22;62506;46.070;14.492;2022-11-11T03:54:23;21.80;67.50
64718;DHT22;62506;46.070;14.492;2022-11-11T03:56:49;21.70;67.40
64718;DHT22;62506;46.070;14.492;2022-11-11T03:59:14;21.70;67.40
64718;DHT22;62506;46.070;14.492;2022-11-11T04:01:40;21.80;67.40
64718;DHT22;62506;46.070;14.492;2022-11-11T04:04:24;21.70;68.20
64718;DHT22;62506;46.070;14.492;2022-11-11T04:07:09;21.70;67.30
64718;DHT22;62506;46.070;14.492;2022-11-11T04:09:53;21.80;67.40
64718;DHT22;62506;46.070;14.492;2022-11-11T04:12:54;21.70;67.30
64718;DHT22;62506;46.070;14.492;2022-11-11T04:15:38;21.70;67.50
64718;DHT22;62506;46.070;14.492;2022-11-11T04:18:22;21.80;67.10
64718;DHT22;62506;46.070;14.492;2022-11-11T04:21:07;21.80;67.30
64718;DHT22;62506;46.070;14.492;2022-11-11T04:23:53;21.90;67.70
64718;DHT22;62506;46.070;14.492;2022-11-11T04:26:19;21.90;67.30
64718;DHT22;62506;46.070;14.492;2022-11-11T04:28:45;22.00;67.30
64718;DHT22;62506;46.070;14.492;2022-11-11T04:31:29;22.00;67.20
64718;DHT22;62506;46.070;14.492;2022-11-11T04:33:55;22.00;67.20
64718;DHT22;62506;46.070;14.492;2022-11-11T04:36:20;22.00;66.40
64718;DHT22;62506;46.070;14.492;2022-11-11T04:38:46;22.00;66.40
64718;DHT22;62506;46.070;14.492;2022-11-11T04:41:30;22.00;66.30
64718;DHT22;62506;46.070;14.492;2022-11-11T04:43:56;22.10;66.20
64718;DHT22;62506;46.070;14.492;2022-11-11T04:46:40;22.10;66.20
64718;DHT22;62506;46.070;14.492;2022-11-11T04:49:06;22.10;66.10
64718;DHT22;62506;46.070;14.492;2022-11-11T04:51:31;22.10;66.10
64718;DHT22;62506;46.070;14.492;2022-11-11T04:54:17;22.10;65.90
64718;DHT22;62506;46.070;14.492;2022-11-11T04:56:42;22.10;65.80
64718;DHT22;62506;46.070;14.492;2022-11-11T04:59:19;22.10;65.80
64718;DHT22;62506;46.070;14.492;2022-11-11T05:01:45;22.10;66.60
64718;DHT22;62506;46.070;14.492;2022-11-11T05:04:29;22.10;65.60
64718;DHT22;62506;46.070;14.492;2022-11-11T05:06:55;22.10;65.60
64718;DHT22;62506;46.070;14.492;2022-11-11T05:09:39;22.10;65.60
64718;DHT22;62506;46.070;14.492;2022-11-11T05:12:05;22.10;65.60
64718;DHT22;62506;46.070;14.492;2022-11-11T05:14:30;22.10;65.50
64718;DHT22;62506;46.070;14.492;2022-11-11T05:17:15;22.10;65.40
64718;DHT22;62506;46.070;14.492;2022-11-11T05:19:59;22.10;65.30
64718;DHT22;62506;46.070;14.492;2022-11-11T05:22:43;22.10;65.40
64718;DHT22;62506;46.070;14.492;2022-11-11T05:25:10;22.10;65.30
64718;DHT22;62506;46.070;14.492;2022-11-11T05:27:53;22.10;65.50
64718;DHT22;62506;46.070;14.492;2022-11-11T05:30:19;22.10;65.30
64718;DHT22;62506;46.070;14.492;2022-11-11T05:32:45;22.10;65.30
64718;DHT22;62506;46.070;14.492;2022-11-11T05:35:11;22.10;65.40
64718;DHT22;62506;46.070;14.492;2022-11-11T05:37:37;22.10;65.40
64718;DHT22;62506;46.070;14.492;2022-11-11T05:40:03;22.10;65.30
64718;DHT22;62506;46.070;14.492;2022-11-11T05:42:29;22.10;65.30
64718;DHT22;62506;46.070;14.492;2022-11-11T05:44:54;22.10;65.30
64718;DHT22;62506;46.070;14.492;2022-11-11T05:47:20;22.10;65.30
64718;DHT22;62506;46.070;14.492;2022-11-11T05:49:46;22.10;65.30
64718;DHT22;62506;46.070;14.492;2022-11-11T05:52:12;22.10;65.30
64718;DHT22;62506;46.070;14.492;2022-11-11T05:54:38;22.00;65.20
64718;DHT22;62506;46.070;14.492;2022-11-11T05:57:04;22.10;65.10
64718;DHT22;62506;46.070;14.492;2022-11-11T05:59:30;22.00;65.30
64718;DHT22;62506;46.070;14.492;2022-11-11T06:01:56;22.00;65.30
64718;DHT22;62506;46.070;14.492;2022-11-11T06:04:22;22.00;65.20
64718;DHT22;62506;46.070;14.492;2022-11-11T06:06:47;22.00;65.20
64718;DHT22;62506;46.070;14.492;2022-11-11T06:09:13;22.10;64.80
64718;DHT22;62506;46.070;14.492;2022-11-11T06:11:38;22.10;64.60
64718;DHT22;62506;46.070;14.492;2022-11-11T06:14:04;22.10;64.40
64718;DHT22;62506;46.070;14.492;2022-11-11T06:16:30;22.20;64.30
64718;DHT22;62506;46.070;14.492;2022-11-11T06:18:55;22.20;64.80
64718;DHT22;62506;46.070;14.492;2022-11-11T06:21:21;22.30;64.80
64718;DHT22;62506;46.070;14.492;2022-11-11T06:23:47;22.30;64.10
64718;DHT22;62506;46.070;14.492;2022-11-11T06:26:13;22.30;63.90
64718;DHT22;62506;46.070;14.492;2022-11-11T06:28:43;22.30;63.80
64718;DHT22;62506;46.070;14.492;2022-11-11T06:31:09;22.30;63.80
64718;DHT22;62506;46.070;14.492;2022-11-11T06:33:36;22.30;63.60
64718;DHT22;62506;46.070;14.492;2022-11-11T06:36:02;22.30;64.20
64718;DHT22;62506;46.070;14.492;2022-11-11T06:38:28;22.40;64.30
64718;DHT22;62506;46.070;14.492;2022-11-11T06:40:53;22.30;63.50
64718;DHT22;62506;46.070;14.492;2022-11-11T06:43:19;22.30;63.50
64718;DHT22;62506;46.070;14.492;2022-11-11T06:45:48;22.30;63.50
64718;DHT22;62506;46.070;14.492;2022-11-11T06:48:14;22.40;64.10
64718;DHT22;62506;46.070;14.492;2022-11-11T06:50:39;22.40;63.10
64718;DHT22;62506;46.070;14.492;2022-11-11T06:53:05;22.40;63.60
64718;DHT22;62506;46.070;14.492;2022-11-11T06:55:32;22.40;63.70
64718;DHT22;62506;46.070;14.492;2022-11-11T06:58:08;22.40;63.50
64718;DHT22;62506;46.070;14.492;2022-11-11T07:00:34;22.40;63.60
64718;DHT22;62506;46.070;14.492;2022-11-11T07:03:01;22.40;63.80
64718;DHT22;62506;46.070;14.492;2022-11-11T07:05:26;22.40;63.90
64718;DHT22;62506;46.070;14.492;2022-11-11T07:07:52;22.40;65.10
64718;DHT22;62506;46.070;14.492;2022-11-11T07:10:18;22.40;65.10
64718;DHT22;62506;46.070;14.492;2022-11-11T07:12:43;22.40;64.90
64718;DHT22;62506;46.070;14.492;2022-11-11T07:15:09;22.40;65.00
64718;DHT22;62506;46.070;14.492;2022-11-11T07:17:35;22.40;64.90
64718;DHT22;62506;46.070;14.492;2022-11-11T07:20:00;22.40;65.10
64718;DHT22;62506;46.070;14.492;2022-11-11T07:22:26;22.40;65.20
64718;DHT22;62506;46.070;14.492;2022-11-11T07:24:54;22.40;65.10
64718;DHT22;62506;46.070;14.492;2022-11-11T07:27:20;22.40;65.10
64718;DHT22;62506;46.070;14.492;2022-11-11T07:29:45;22.50;66.00
64718;DHT22;62506;46.070;14.492;2022-11-11T07:32:13;22.50;65.40
64718;DHT22;62506;46.070;14.492;2022-11-11T07:34:39;22.50;65.20
64718;DHT22;62506;46.070;14.492;2022-11-11T07:37:07;22.50;65.10
64718;DHT22;62506;46.070;14.492;2022-11-11T07:39:34;22.50;65.50
64718;DHT22;62506;46.070;14.492;2022-11-11T07:41:59;22.50;65.40
64718;DHT22;62506;46.070;14.492;2022-11-11T07:44:25;22.50;64.80
64718;DHT22;62506;46.070;14.492;2022-11-11T07:46:51;22.50;64.50
64718;DHT22;62506;46.070;14.492;2022-11-11T07:49:17;22.50;64.40
64718;DHT22;62506;46.070;14.492;2022-11-11T07:51:42;22.50;64.40
64718;DHT22;62506;46.070;14.492;2022-11-11T07:54:08;22.40;63.50
64718;DHT22;62506;46.070;14.492;2022-11-11T07:56:33;22.40;62.10
64718;DHT22;62506;46.070;14.492;2022-11-11T07:59:02;22.40;63.80
64718;DHT22;62506;46.070;14.492;2022-11-11T08:01:27;22.40;64.40
64718;DHT22;62506;46.070;14.492;2022-11-11T08:03:53;22.40;64.40
64718;DHT22;62506;46.070;14.492;2022-11-11T08:06:19;22.40;64.80
64718;DHT22;62506;46.070;14.492;2022-11-11T08:08:45;22.40;65.10
64718;DHT22;62506;46.070;14.492;2022-11-11T08:11:11;22.40;65.30
64718;DHT22;62506;46.070;14.492;2022-11-11T08:13:37;22.30;65.40
64718;DHT22;62506;46.070;14.492;2022-11-11T08:16:06;22.30;65.60
64718;DHT22;62506;46.070;14.492;2022-11-11T08:18:32;22.30;65.70
64718;DHT22;62506;46.070;14.492;2022-11-11T08:20:59;22.30;65.50
64718;DHT22;62506;46.070;14.492;2022-11-11T08:23:24;22.30;65.40
64718;DHT22;62506;46.070;14.492;2022-11-11T08:25:57;22.20;65.30
64718;DHT22;62506;46.070;14.492;2022-11-11T08:28:23;22.20;66.20
64718;DHT22;62506;46.070;14.492;2022-11-11T08:30:49;22.20;65.00
64718;DHT22;62506;46.070;14.492;2022-11-11T08:33:14;22.20;65.00
64718;DHT22;62506;46.070;14.492;2022-11-11T08:35:40;22.20;65.10
64718;DHT22;62506;46.070;14.492;2022-11-11T08:38:05;22.20;65.00
64718;DHT22;62506;46.070;14.492;2022-11-11T08:40:31;22.20;64.90
64718;DHT22;62506;46.070;14.492;2022-11-11T08:42:57;22.20;64.80
64718;DHT22;62506;46.070;14.492;2022-11-11T08:45:23;22.20;64.70
64718;DHT22;62506;46.070;14.492;2022-11-11T08:47:49;22.30;64.80
64718;DHT22;62506;46.070;14.492;2022-11-11T08:50:15;22.30;64.60
64718;DHT22;62506;46.070;14.492;2022-11-11T08:52:45;22.30;64.50
64718;DHT22;62506;46.070;14.492;2022-11-11T08:55:11;22.30;64.60
64718;DHT22;62506;46.070;14.492;2022-11-11T08:57:36;22.30;64.30
64718;DHT22;62506;46.070;14.492;2022-11-11T09:00:03;22.30;64.30
64718;DHT22;62506;46.070;14.492;2022-11-11T09:02:28;22.30;64.20
64718;DHT22;62506;46.070;14.492;2022-11-11T09:04:54;22.30;64.10
64718;DHT22;62506;46.070;14.492;2022-11-11T09:07:20;22.30;64.00
64718;DHT22;62506;46.070;14.492;2022-11-11T09:09:45;22.40;64.10
64718;DHT22;62506;46.070;14.492;2022-11-11T09:12:11;22.40;64.00
64718;DHT22;62506;46.070;14.492;2022-11-11T09:14:36;22.40;63.80
64718;DHT22;62506;46.070;14.492;2022-11-11T09:17:02;22.40;63.50
64718;DHT22;62506;46.070;14.492;2022-11-11T09:19:27;22.40;63.50
64718;DHT22;62506;46.070;14.492;2022-11-11T09:21:53;22.40;63.30
64718;DHT22;62506;46.070;14.492;2022-11-11T09:24:19;22.50;63.40
64718;DHT22;62506;46.070;14.492;2022-11-11T09:26:46;22.50;63.30
64718;DHT22;62506;46.070;14.492;2022-11-11T09:29:12;22.40;63.10
64718;DHT22;62506;46.070;14.492;2022-11-11T09:31:38;22.40;63.10
64718;DHT22;62506;46.070;14.492;2022-11-11T09:34:03;22.40;63.10
64718;DHT22;62506;46.070;14.492;2022-11-11T09:36:31;22.50;63.10
64718;DHT22;62506;46.070;14.492;2022-11-11T09:38:56;22.50;63.00
64718;DHT22;62506;46.070;14.492;2022-11-11T09:49:15;22.50;63.40
64718;DHT22;62506;46.070;14.492;2022-11-11T09:51:50;22.40;63.30
64718;DHT22;62506;46.070;14.492;2022-11-11T09:54:19;22.50;63.10
64718;DHT22;62506;46.070;14.492;2022-11-11T09:56:46;22.50;63.40
64718;DHT22;62506;46.070;14.492;2022-11-11T09:59:16;22.50;63.20
64718;DHT22;62506;46.070;14.492;2022-11-11T10:01:48;22.50;62.90
64718;DHT22;62506;46.070;14.492;2022-11-11T10:04:26;22.40;62.60
64718;DHT22;62506;46.070;14.492;2022-11-11T10:07:11;22.40;62.50
64718;DHT22;62506;46.070;14.492;2022-11-11T10:09:43;22.40;62.60
64718;DHT22;62506;46.070;14.492;2022-11-11T10:14:45;22.40;62.60
64718;DHT22;62506;46.070;14.492;2022-11-11T10:22:32;22.40;63.60
64718;DHT22;62506;46.070;14.492;2022-11-11T10:27:38;22.40;63.10
64718;DHT22;62506;46.070;14.492;2022-11-11T10:30:24;22.30;63.10
64718;DHT22;62506;46.070;14.492;2022-11-11T10:32:58;22.30;63.20
64718;DHT22;62506;46.070;14.492;2022-11-11T10:35:33;22.30;63.30
64718;DHT22;62506;46.070;14.492;2022-11-11T10:40:36;22.30;63.30
64718;DHT22;62506;46.070;14.492;2022-11-11T10:43:03;22.30;63.50
64718;DHT22;62506;46.070;14.492;2022-11-11T10:45:30;22.30;63.30
64718;DHT22;62506;46.070;14.492;2022-11-11T10:48:19;22.20;63.30
64718;DHT22;62506;46.070;14.492;2022-11-11T10:50:46;22.20;63.20
64718;DHT22;62506;46.070;14.492;2022-11-11T10:53:21;22.30;63.20
64718;DHT22;62506;46.070;14.492;2022-11-11T10:55:52;22.20;63.10
64718;DHT22;62506;46.070;14.492;2022-11-11T11:00:45;22.20;63.30
64718;DHT22;62506;46.070;14.492;2022-11-11T11:03:19;22.20;63.30
64718;DHT22;62506;46.070;14.492;2022-11-11T11:08:23;22.20;63.30
64718;DHT22;62506;46.070;14.492;2022-11-11T11:11:08;22.20;63.30
64718;DHT22;62506;46.070;14.492;2022-11-11T11:16:05;22.20;63.30
64718;DHT22;62506;46.070;14.492;2022-11-11T11:18:31;22.20;63.30
64718;DHT22;62506;46.070;14.492;2022-11-11T11:20:58;22.20;63.20
64718;DHT22;62506;46.070;14.492;2022-11-11T11:23:40;22.20;63.30
64718;DHT22;62506;46.070;14.492;2022-11-11T11:26:08;22.20;62.80
64718;DHT22;62506;46.070;14.492;2022-11-11T11:28:35;22.20;62.90
64718;DHT22;62506;46.070;14.492;2022-11-11T11:31:16;22.20;62.80
64718;DHT22;62506;46.070;14.492;2022-11-11T11:33:52;22.20;62.80
64718;DHT22;62506;46.070;14.492;2022-11-11T11:36:18;22.20;62.80
64718;DHT22;62506;46.070;14.492;2022-11-11T11:38:45;22.20;62.70
64718;DHT22;62506;46.070;14.492;2022-11-11T11:41:12;22.20;62.80
64718;DHT22;62506;46.070;14.492;2022-11-11T11:43:38;22.20;62.70
64718;DHT22;62506;46.070;14.492;2022-11-11T11:46:13;22.20;62.70
64718;DHT22;62506;46.070;14.492;2022-11-11T11:51:19;22.20;62.60
64718;DHT22;62506;46.070;14.492;2022-11-11T11:54:02;22.30;62.60
64718;DHT22;62506;46.070;14.492;2022-11-11T11:56:32;22.30;62.60
64718;DHT22;62506;46.070;14.492;2022-11-11T12:01:34;22.30;62.30
64718;DHT22;62506;46.070;14.492;2022-11-11T12:12:00;22.30;62.40
64718;DHT22;62506;46.070;14.492;2022-11-11T12:19:25;22.30;62.30
64718;DHT22;62506;46.070;14.492;2022-11-11T12:26:57;22.40;63.20
64718;DHT22;62506;46.070;14.492;2022-11-11T12:32:05;22.40;62.80
64718;DHT22;62506;46.070;14.492;2022-11-11T12:42:14;22.50;62.00
64718;DHT22;62506;46.070;14.492;2022-11-11T12:44:53;22.50;62.20
64718;DHT22;62506;46.070;14.492;2022-11-11T12:47:26;22.50;63.20
64718;DHT22;62506;46.070;14.492;2022-11-11T12:50:16;22.50;62.20
64718;DHT22;62506;46.070;14.492;2022-11-11T12:52:46;22.50;62.30
64718;DHT22;62506;46.070;14.492;2022-11-11T12:55:27;22.50;62.50
64718;DHT22;62506;46.070;14.492;2022-11-11T12:58:10;22.60;62.30
64718;DHT22;62506;46.070;14.492;2022-11-11T13:00:39;22.50;61.80
64718;DHT22;62506;46.070;14.492;2022-11-11T13:06:15;22.50;62.00
64718;DHT22;62506;46.070;14.492;2022-11-11T13:11:32;22.50;62.20
64718;DHT22;62506;46.070;14.492;2022-11-11T13:14:18;22.50;62.80
64718;DHT22;62506;46.070;14.492;2022-11-11T13:16:49;22.50;63.00
64718;DHT22;62506;46.070;14.492;2022-11-11T13:19:27;22.50;65.00
64718;DHT22;62506;46.070;14.492;2022-11-11T13:22:28;22.60;64.70
64718;DHT22;62506;46.070;14.492;2022-11-11T13:25:13;22.60;65.10
64718;DHT22;62506;46.070;14.492;2022-11-11T13:27:41;22.60;65.50
64718;DHT22;62506;46.070;14.492;2022-11-11T13:32:39;22.70;65.20
64718;DHT22;62506;46.070;14.492;2022-11-11T13:37:57;22.70;65.00
64718;DHT22;62506;46.070;14.492;2022-11-11T13:45:54;22.80;65.10
64718;DHT22;62506;46.070;14.492;2022-11-11T13:51:13;22.70;64.40
64718;DHT22;62506;46.070;14.492;2022-11-11T13:53:45;22.70;64.50
64718;DHT22;62506;46.070;14.492;2022-11-11T13:56:11;22.70;64.40
64718;DHT22;62506;46.070;14.492;2022-11-11T13:58:38;22.70;64.50
64718;DHT22;62506;46.070;14.492;2022-11-11T14:01:05;22.70;64.50
64718;DHT22;62506;46.070;14.492;2022-11-11T14:03:33;22.70;64.90
64718;DHT22;62506;46.070;14.492;2022-11-11T14:11:33;22.70;65.00
64718;DHT22;62506;46.070;14.492;2022-11-11T14:13:58;22.70;65.00
64718;DHT22;62506;46.070;14.492;2022-11-11T14:21:56;22.70;65.00
64718;DHT22;62506;46.070;14.492;2022-11-11T14:24:24;22.70;65.00
64718;DHT22;62506;46.070;14.492;2022-11-11T14:26:57;22.70;65.30
64718;DHT22;62506;46.070;14.492;2022-11-11T14:29:25;22.70;65.10
64718;DHT22;62506;46.070;14.492;2022-11-11T14:32:00;22.80;65.30
64718;DHT22;62506;46.070;14.492;2022-11-11T14:39:55;22.80;65.40
64718;DHT22;62506;46.070;14.492;2022-11-11T14:42:42;22.80;65.50
64718;DHT22;62506;46.070;14.492;2022-11-11T14:47:53;22.70;65.50
64718;DHT22;62506;46.070;14.492;2022-11-11T14:52:52;22.70;65.00
64718;DHT22;62506;46.070;14.492;2022-11-11T14:57:48;22.70;65.20
64718;DHT22;62506;46.070;14.492;2022-11-11T15:00:19;22.70;65.40
64718;DHT22;62506;46.070;14.492;2022-11-11T15:03:31;22.70;65.70
64718;DHT22;62506;46.070;14.492;2022-11-11T15:13:25;22.50;65.00
64718;DHT22;62506;46.070;14.492;2022-11-11T15:20:50;22.50;65.30
64718;DHT22;62506;46.070;14.492;2022-11-11T15:25:55;22.50;65.20
64718;DHT22;62506;46.070;14.492;2022-11-11T15:31:14;22.50;63.20
64718;DHT22;62506;46.070;14.492;2022-11-11T15:33:55;22.60;64.30
64718;DHT22;62506;46.070;14.492;2022-11-11T15:38:53;22.60;64.20
64718;DHT22;62506;46.070;14.492;2022-11-11T15:41:20;22.50;64.30
64718;DHT22;62506;46.070;14.492;2022-11-11T15:43:47;22.50;64.50
64718;DHT22;62506;46.070;14.492;2022-11-11T15:46:18;22.40;64.30
64718;DHT22;62506;46.070;14.492;2022-11-11T15:48:46;22.40;64.60
64718;DHT22;62506;46.070;14.492;2022-11-11T15:51:15;22.40;64.70
64718;DHT22;62506;46.070;14.492;2022-11-11T15:53:41;22.40;60.10
64718;DHT22;62506;46.070;14.492;2022-11-11T15:56:07;22.20;59.90
64718;DHT22;62506;46.070;14.492;2022-11-11T15:58:33;22.20;62.30
64718;DHT22;62506;46.070;14.492;2022-11-11T16:00:59;22.20;64.20
64718;DHT22;62506;46.070;14.492;2022-11-11T16:03:29;22.30;63.30
64718;DHT22;62506;46.070;14.492;2022-11-11T16:05:55;22.30;63.50
64718;DHT22;62506;46.070;14.492;2022-11-11T16:08:21;22.30;63.70
64718;DHT22;62506;46.070;14.492;2022-11-11T16:10:51;22.30;63.90
64718;DHT22;62506;46.070;14.492;2022-11-11T16:13:23;22.40;64.10
64718;DHT22;62506;46.070;14.492;2022-11-11T16:15:51;22.40;64.10
64718;DHT22;62506;46.070;14.492;2022-11-11T16:18:20;22.40;64.10
64718;DHT22;62506;46.070;14.492;2022-11-11T16:21:09;22.40;64.10
64718;DHT22;62506;46.070;14.492;2022-11-11T16:23:32;22.50;64.20
64718;DHT22;62506;46.070;14.492;2022-11-11T16:25:58;22.50;64.10
64718;DHT22;62506;46.070;14.492;2022-11-11T16:28:25;22.50;64.10
64718;DHT22;62506;46.070;14.492;2022-11-11T16:30:51;22.50;64.20
64718;DHT22;62506;46.070;14.492;2022-11-11T16:33:34;22.50;64.10
64718;DHT22;62506;46.070;14.492;2022-11-11T16:36:07;22.60;64.20
64718;DHT22;62506;46.070;14.492;2022-11-11T16:38:33;22.60;64.20
64718;DHT22;62506;46.070;14.492;2022-11-11T16:40:59;22.60;64.20
64718;DHT22;62506;46.070;14.492;2022-11-11T16:43:30;22.60;64.20
64718;DHT22;62506;46.070;14.492;2022-11-11T16:50:59;22.60;64.10
64718;DHT22;62506;46.070;14.492;2022-11-11T16:53:28;22.60;64.10
64718;DHT22;62506;46.070;14.492;2022-11-11T16:55:57;22.60;63.70
64718;DHT22;62506;46.070;14.492;2022-11-11T16:58:23;22.60;63.90
64718;DHT22;62506;46.070;14.492;2022-11-11T17:00:49;22.60;64.20
64718;DHT22;62506;46.070;14.492;2022-11-11T17:03:23;22.70;63.90
64718;DHT22;62506;46.070;14.492;2022-11-11T17:11:01;22.70;63.50
64718;DHT22;62506;46.070;14.492;2022-11-11T17:13:27;22.70;63.50
64718;DHT22;62506;46.070;14.492;2022-11-11T17:15:53;22.70;63.50
64718;DHT22;62506;46.070;14.492;2022-11-11T17:18:19;22.70;63.60
64718;DHT22;62506;46.070;14.492;2022-11-11T17:20:45;22.70;63.60
64718;DHT22;62506;46.070;14.492;2022-11-11T17:23:11;22.70;63.90
64718;DHT22;62506;46.070;14.492;2022-11-11T17:25:36;22.70;63.00
64718;DHT22;62506;46.070;14.492;2022-11-11T17:28:02;22.70;63.40
64718;DHT22;62506;46.070;14.492;2022-11-11T17:30:28;22.70;63.90
64718;DHT22;62506;46.070;14.492;2022-11-11T17:32:53;22.70;64.50
64718;DHT22;62506;46.070;14.492;2022-11-11T17:35:19;22.70;63.60
64718;DHT22;62506;46.070;14.492;2022-11-11T17:37:44;22.70;63.70
64718;DHT22;62506;46.070;14.492;2022-11-11T17:40:10;22.70;63.70
64718;DHT22;62506;46.070;14.492;2022-11-11T17:42:36;22.60;63.70
64718;DHT22;62506;46.070;14.492;2022-11-11T17:45:02;22.60;63.70
64718;DHT22;62506;46.070;14.492;2022-11-11T17:47:28;22.60;64.00
64718;DHT22;62506;46.070;14.492;2022-11-11T17:49:54;22.60;64.30